sensor_id;sensor_type;location;lat;lon;timestamp;temperature;humidity
7658;DHT22;8462;53.156;8.220;2023-04-24T00:00:10;14.30;99.90
7658;DHT22;8462;53.156;8.220;2023-04-24T00:02:38;14.20;99.90
7658;DHT22;8462;53.156;8.220;2023-04-24T00:05:06;14.30;99.90
7658;DHT22;8462;53.156;8.220;2023-04-24T00:07:33;14.30;99.90
7658;DHT22;8462;53.156;8.220;2023-04-24T00:10:01;14.30;99.90
7658;DHT22;8462;53.156;8.220;2023-04-24T00:12:28;14.40;99.90
7658;DHT22;8462;53.156;8.220;2023-04-24T00:14:55;14.50;99.90
7658;DHT22;8462;53.156;8.220;2023-04-24T00:17:22;14.50;99.90
7658;DHT22;8462;53.156;8.220;2023-04-24T00:19:49;14.60;99.50
7658;DHT22;8462;53.156;8.220;2023-04-24T00:22:17;14.60;99.00
7658;DHT22;8462;53.156;8.220;2023-04-24T00:24:46;14.50;96.20
7658;DHT22;8462;53.156;8.220;2023-04-24T00:27:14;14.50;94.90
7658;DHT22;8462;53.156;8.220;2023-04-24T00:29:41;14.50;94.70
7658;DHT22;8462;53.156;8.220;2023-04-24T00:32:08;14.40;93.90
7658;DHT22;8462;53.156;8.220;2023-04-24T00:34:35;14.40;93.30
7658;DHT22;8462;53.156;8.220;2023-04-24T00:37:02;14.30;93.00
7658;DHT22;8462;53.156;8.220;2023-04-24T00:39:29;14.30;92.60
7658;DHT22;8462;53.156;8.220;2023-04-24T00:41:56;14.30;92.80
7658;DHT22;8462;53.156;8.220;2023-04-24T00:44:25;14.20;92.00
7658;DHT22;8462;53.156;8.220;2023-04-24T00:46:52;14.20;92.00
7658;DHT22;8462;53.156;8.220;2023-04-24T00:49:22;14.10;92.20
7658;DHT22;8462;53.156;8.220;2023-04-24T00:51:49;14.10;92.20
7658;DHT22;8462;53.156;8.220;2023-04-24T00:54:17;14.00;92.70
7658;DHT22;8462;53.156;8.220;2023-04-24T00:56:44;14.00;92.70
7658;DHT22;8462;53.156;8.220;2023-04-24T00:59:12;13.90;92.80
7658;DHT22;8462;53.156;8.220;2023-04-24T01:01:40;13.90;93.00
7658;DHT22;8462;53.156;8.220;2023-04-24T01:04:09;13.80;93.10
7658;DHT22;8462;53.156;8.220;2023-04-24T01:06:38;13.80;93.50
7658;DHT22;8462;53.156;8.220;2023-04-24T01:09:05;13.80;93.80
7658;DHT22;8462;53.156;8.220;2023-04-24T01:11:33;13.80;93.40
7658;DHT22;8462;53.156;8.220;2023-04-24T01:14:00;13.80;93.40
7658;DHT22;8462;53.156;8.220;2023-04-24T01:16:28;13.70;93.60
7658;DHT22;8462;53.156;8.220;2023-04-24T01:18:56;13.70;93.60
7658;DHT22;8462;53.156;8.220;2023-04-24T01:21:23;13.70;93.60
7658;DHT22;8462;53.156;8.220;2023-04-24T01:23:55;13.70;93.60
7658;DHT22;8462;53.156;8.220;2023-04-24T01:26:22;13.80;93.50
7658;DHT22;8462;53.156;8.220;2023-04-24T01:28:51;13.80;93.20
7658;DHT22;8462;53.156;8.220;2023-04-24T01:31:19;13.80;93.10
7658;DHT22;8462;53.156;8.220;2023-04-24T01:33:47;13.80;92.70
7658;DHT22;8462;53.156;8.220;2023-04-24T01:36:14;13.80;92.60
7658;DHT22;8462;53.156;8.220;2023-04-24T01:38:41;13.70;92.40
7658;DHT22;8462;53.156;8.220;2023-04-24T01:41:11;13.70;92.30
7658;DHT22;8462;53.156;8.220;2023-04-24T01:43:38;13.70;92.30
7658;DHT22;8462;53.156;8.220;2023-04-24T01:46:05;13.70;92.30
7658;DHT22;8462;53.156;8.220;2023-04-24T01:48:35;13.70;92.30
7658;DHT22;8462;53.156;8.220;2023-04-24T01:51:02;13.70;92.40
7658;DHT22;8462;53.156;8.220;2023-04-24T01:53:29;13.70;92.30
7658;DHT22;8462;53.156;8.220;2023-04-24T01:55:56;13.80;92.30
7658;DHT22;8462;53.156;8.220;2023-04-24T01:58:26;13.80;92.30
7658;DHT22;8462;53.156;8.220;2023-04-24T02:00:56;13.80;92.30
7658;DHT22;8462;53.156;8.220;2023-04-24T02:03:23;13.70;92.60
7658;DHT22;8462;53.156;8.220;2023-04-24T02:05:50;13.80;93.00
7658;DHT22;8462;53.156;8.220;2023-04-24T02:08:17;13.80;93.00
7658;DHT22;8462;53.156;8.220;2023-04-24T02:10:44;13.80;92.90
7658;DHT22;8462;53.156;8.220;2023-04-24T02:13:10;13.80;93.10
7658;DHT22;8462;53.156;8.220;2023-04-24T02:15:39;13.90;93.20
7658;DHT22;8462;53.156;8.220;2023-04-24T02:18:05;13.90;92.80
7658;DHT22;8462;53.156;8.220;2023-04-24T02:20:33;13.90;92.90
7658;DHT22;8462;53.156;8.220;2023-04-24T02:23:01;13.90;92.60
7658;DHT22;8462;53.156;8.220;2023-04-24T02:25:28;13.80;92.20
7658;DHT22;8462;53.156;8.220;2023-04-24T02:27:55;13.80;92.40
7658;DHT22;8462;53.156;8.220;2023-04-24T02:30:22;13.80;92.90
7658;DHT22;8462;53.156;8.220;2023-04-24T02:32:50;13.90;92.90
7658;DHT22;8462;53.156;8.220;2023-04-24T02:35:17;13.90;92.40
7658;DHT22;8462;53.156;8.220;2023-04-24T02:37:44;13.80;92.80
7658;DHT22;8462;53.156;8.220;2023-04-24T02:40:11;13.80;92.40
7658;DHT22;8462;53.156;8.220;2023-04-24T02:42:39;13.80;92.50
7658;DHT22;8462;53.156;8.220;2023-04-24T02:45:06;13.80;92.50
7658;DHT22;8462;53.156;8.220;2023-04-24T02:47:34;13.80;92.30
7658;DHT22;8462;53.156;8.220;2023-04-24T02:50:03;13.80;92.10
7658;DHT22;8462;53.156;8.220;2023-04-24T02:52:30;13.70;91.80
7658;DHT22;8462;53.156;8.220;2023-04-24T02:54:56;13.70;92.10
7658;DHT22;8462;53.156;8.220;2023-04-24T02:57:23;13.60;92.30
7658;DHT22;8462;53.156;8.220;2023-04-24T02:59:50;13.60;93.10
7658;DHT22;8462;53.156;8.220;2023-04-24T03:02:17;13.50;93.60
7658;DHT22;8462;53.156;8.220;2023-04-24T03:04:44;13.50;93.90
7658;DHT22;8462;53.156;8.220;2023-04-24T03:07:17;13.50;94.10
7658;DHT22;8462;53.156;8.220;2023-04-24T03:09:46;13.40;94.10
7658;DHT22;8462;53.156;8.220;2023-04-24T03:12:15;13.50;94.10
7658;DHT22;8462;53.156;8.220;2023-04-24T03:14:43;13.50;94.00
7658;DHT22;8462;53.156;8.220;2023-04-24T03:17:11;13.50;93.70
7658;DHT22;8462;53.156;8.220;2023-04-24T03:19:38;13.50;93.90
7658;DHT22;8462;53.156;8.220;2023-04-24T03:22:09;13.50;93.50
7658;DHT22;8462;53.156;8.220;2023-04-24T03:24:38;13.50;92.90
7658;DHT22;8462;53.156;8.220;2023-04-24T03:27:06;13.50;93.00
7658;DHT22;8462;53.156;8.220;2023-04-24T03:30:02;13.50;92.70
7658;DHT22;8462;53.156;8.220;2023-04-24T03:32:43;13.50;92.90
7658;DHT22;8462;53.156;8.220;2023-04-24T03:35:13;13.50;92.80
7658;DHT22;8462;53.156;8.220;2023-04-24T03:37:43;13.50;92.90
7658;DHT22;8462;53.156;8.220;2023-04-24T03:40:30;13.50;93.00
7658;DHT22;8462;53.156;8.220;2023-04-24T03:42:59;13.50;93.00
7658;DHT22;8462;53.156;8.220;2023-04-24T03:45:26;13.50;93.00
7658;DHT22;8462;53.156;8.220;2023-04-24T03:47:54;13.50;93.20
7658;DHT22;8462;53.156;8.220;2023-04-24T03:50:21;13.50;92.70
7658;DHT22;8462;53.156;8.220;2023-04-24T03:52:50;13.50;92.90
7658;DHT22;8462;53.156;8.220;2023-04-24T03:55:30;13.50;93.00
7658;DHT22;8462;53.156;8.220;2023-04-24T03:57:57;13.50;92.70
7658;DHT22;8462;53.156;8.220;2023-04-24T04:00:24;13.50;92.60
7658;DHT22;8462;53.156;8.220;2023-04-24T04:03:07;13.50;92.60
7658;DHT22;8462;53.156;8.220;2023-04-24T04:05:34;13.50;92.50
7658;DHT22;8462;53.156;8.220;2023-04-24T04:08:02;13.50;92.80
7658;DHT22;8462;53.156;8.220;2023-04-24T04:10:31;13.50;92.90
7658;DHT22;8462;53.156;8.220;2023-04-24T04:12:58;13.50;93.20
7658;DHT22;8462;53.156;8.220;2023-04-24T04:15:25;13.50;93.00
7658;DHT22;8462;53.156;8.220;2023-04-24T04:17:52;13.50;93.40
7658;DHT22;8462;53.156;8.220;2023-04-24T04:20:19;13.40;93.20
7658;DHT22;8462;53.156;8.220;2023-04-24T04:22:47;13.40;93.60
7658;DHT22;8462;53.156;8.220;2023-04-24T04:25:20;13.40;93.80
7658;DHT22;8462;53.156;8.220;2023-04-24T04:27:48;13.40;94.00
7658;DHT22;8462;53.156;8.220;2023-04-24T04:30:16;13.40;94.20
7658;DHT22;8462;53.156;8.220;2023-04-24T04:32:52;13.40;94.30
7658;DHT22;8462;53.156;8.220;2023-04-24T04:35:22;13.40;94.60
7658;DHT22;8462;53.156;8.220;2023-04-24T04:37:51;13.40;95.00
7658;DHT22;8462;53.156;8.220;2023-04-24T04:40:39;13.40;95.10
7658;DHT22;8462;53.156;8.220;2023-04-24T04:43:07;13.40;95.10
7658;DHT22;8462;53.156;8.220;2023-04-24T04:45:44;13.40;94.80
7658;DHT22;8462;53.156;8.220;2023-04-24T04:48:22;13.40;94.80
7658;DHT22;8462;53.156;8.220;2023-04-24T04:50:49;13.30;94.60
7658;DHT22;8462;53.156;8.220;2023-04-24T04:53:17;13.40;94.90
7658;DHT22;8462;53.156;8.220;2023-04-24T04:55:44;13.30;94.90
7658;DHT22;8462;53.156;8.220;2023-04-24T04:58:16;13.30;95.20
7658;DHT22;8462;53.156;8.220;2023-04-24T05:00:44;13.20;95.70
7658;DHT22;8462;53.156;8.220;2023-04-24T05:03:21;13.20;96.20
7658;DHT22;8462;53.156;8.220;2023-04-24T05:05:57;13.10;96.10
7658;DHT22;8462;53.156;8.220;2023-04-24T05:08:25;13.10;96.60
7658;DHT22;8462;53.156;8.220;2023-04-24T05:10:55;13.20;96.60
7658;DHT22;8462;53.156;8.220;2023-04-24T05:13:23;13.30;96.10
7658;DHT22;8462;53.156;8.220;2023-04-24T05:15:51;13.30;95.60
7658;DHT22;8462;53.156;8.220;2023-04-24T05:18:18;13.40;95.80
7658;DHT22;8462;53.156;8.220;2023-04-24T05:20:45;13.40;95.60
7658;DHT22;8462;53.156;8.220;2023-04-24T05:23:12;13.50;95.20
7658;DHT22;8462;53.156;8.220;2023-04-24T05:25:42;13.50;94.90
7658;DHT22;8462;53.156;8.220;2023-04-24T05:28:11;13.50;94.50
7658;DHT22;8462;53.156;8.220;2023-04-24T05:30:40;13.60;94.40
7658;DHT22;8462;53.156;8.220;2023-04-24T05:33:06;13.60;94.00
7658;DHT22;8462;53.156;8.220;2023-04-24T05:35:34;13.60;93.90
7658;DHT22;8462;53.156;8.220;2023-04-24T05:38:01;13.60;94.10
7658;DHT22;8462;53.156;8.220;2023-04-24T05:40:28;13.60;93.60
7658;DHT22;8462;53.156;8.220;2023-04-24T05:42:55;13.60;93.70
7658;DHT22;8462;53.156;8.220;2023-04-24T05:45:24;13.60;93.60
7658;DHT22;8462;53.156;8.220;2023-04-24T05:47:52;13.50;93.70
7658;DHT22;8462;53.156;8.220;2023-04-24T05:50:19;13.60;93.60
7658;DHT22;8462;53.156;8.220;2023-04-24T05:52:46;13.60;93.20
7658;DHT22;8462;53.156;8.220;2023-04-24T05:55:25;13.70;93.20
7658;DHT22;8462;53.156;8.220;2023-04-24T05:57:53;13.70;92.50
7658;DHT22;8462;53.156;8.220;2023-04-24T06:00:20;13.80;92.90
7658;DHT22;8462;53.156;8.220;2023-04-24T06:02:59;13.90;92.50
7658;DHT22;8462;53.156;8.220;2023-04-24T06:05:27;13.90;92.30
7658;DHT22;8462;53.156;8.220;2023-04-24T06:07:53;14.00;91.90
7658;DHT22;8462;53.156;8.220;2023-04-24T06:10:23;14.10;91.80
7658;DHT22;8462;53.156;8.220;2023-04-24T06:12:50;14.20;91.80
7658;DHT22;8462;53.156;8.220;2023-04-24T06:15:18;14.30;91.40
7658;DHT22;8462;53.156;8.220;2023-04-24T06:17:51;14.30;91.10
7658;DHT22;8462;53.156;8.220;2023-04-24T06:20:21;14.30;90.70
7658;DHT22;8462;53.156;8.220;2023-04-24T06:22:48;14.30;90.70
7658;DHT22;8462;53.156;8.220;2023-04-24T06:25:15;14.30;90.60
7658;DHT22;8462;53.156;8.220;2023-04-24T06:27:42;14.20;90.70
7658;DHT22;8462;53.156;8.220;2023-04-24T06:30:10;14.20;90.60
7658;DHT22;8462;53.156;8.220;2023-04-24T06:32:38;14.20;90.80
7658;DHT22;8462;53.156;8.220;2023-04-24T06:35:05;14.20;90.90
7658;DHT22;8462;53.156;8.220;2023-04-24T06:37:35;14.20;90.90
7658;DHT22;8462;53.156;8.220;2023-04-24T06:40:02;14.20;90.70
7658;DHT22;8462;53.156;8.220;2023-04-24T06:42:29;14.30;90.80
7658;DHT22;8462;53.156;8.220;2023-04-24T06:44:55;14.40;90.70
7658;DHT22;8462;53.156;8.220;2023-04-24T06:47:22;14.40;90.60
7658;DHT22;8462;53.156;8.220;2023-04-24T06:49:49;14.40;90.10
7658;DHT22;8462;53.156;8.220;2023-04-24T06:52:18;14.40;90.40
7658;DHT22;8462;53.156;8.220;2023-04-24T06:54:47;14.50;90.00
7658;DHT22;8462;53.156;8.220;2023-04-24T06:57:14;14.50;89.90
7658;DHT22;8462;53.156;8.220;2023-04-24T06:59:41;14.60;89.30
7658;DHT22;8462;53.156;8.220;2023-04-24T07:02:09;14.80;89.40
7658;DHT22;8462;53.156;8.220;2023-04-24T07:04:36;15.10;87.80
7658;DHT22;8462;53.156;8.220;2023-04-24T07:07:03;15.30;87.10
7658;DHT22;8462;53.156;8.220;2023-04-24T07:09:33;15.40;84.90
7658;DHT22;8462;53.156;8.220;2023-04-24T07:12:05;15.40;84.70
7658;DHT22;8462;53.156;8.220;2023-04-24T07:14:34;15.30;84.90
7658;DHT22;8462;53.156;8.220;2023-04-24T07:17:02;15.20;85.20
7658;DHT22;8462;53.156;8.220;2023-04-24T07:19:29;15.00;86.10
7658;DHT22;8462;53.156;8.220;2023-04-24T07:21:56;15.00;86.30
7658;DHT22;8462;53.156;8.220;2023-04-24T07:24:24;14.90;86.70
7658;DHT22;8462;53.156;8.220;2023-04-24T07:26:51;14.90;87.10
7658;DHT22;8462;53.156;8.220;2023-04-24T07:29:20;14.80;86.60
7658;DHT22;8462;53.156;8.220;2023-04-24T07:31:47;14.70;87.20
7658;DHT22;8462;53.156;8.220;2023-04-24T07:34:13;14.70;87.90
7658;DHT22;8462;53.156;8.220;2023-04-24T07:36:41;14.70;88.10
7658;DHT22;8462;53.156;8.220;2023-04-24T07:39:08;14.70;86.80
7658;DHT22;8462;53.156;8.220;2023-04-24T07:41:35;14.80;86.30
7658;DHT22;8462;53.156;8.220;2023-04-24T07:44:02;14.80;86.90
7658;DHT22;8462;53.156;8.220;2023-04-24T07:46:31;15.00;86.60
7658;DHT22;8462;53.156;8.220;2023-04-24T07:48:58;15.10;85.00
7658;DHT22;8462;53.156;8.220;2023-04-24T07:51:27;15.10;84.70
7658;DHT22;8462;53.156;8.220;2023-04-24T07:53:54;15.10;84.90
7658;DHT22;8462;53.156;8.220;2023-04-24T07:56:21;15.20;85.10
7658;DHT22;8462;53.156;8.220;2023-04-24T07:58:48;15.20;83.50
7658;DHT22;8462;53.156;8.220;2023-04-24T08:01:15;15.10;83.60
7658;DHT22;8462;53.156;8.220;2023-04-24T08:03:53;15.10;84.10
7658;DHT22;8462;53.156;8.220;2023-04-24T08:06:20;15.10;84.00
7658;DHT22;8462;53.156;8.220;2023-04-24T08:08:47;15.30;83.80
7658;DHT22;8462;53.156;8.220;2023-04-24T08:11:14;15.20;83.50
7658;DHT22;8462;53.156;8.220;2023-04-24T08:13:41;15.30;82.80
7658;DHT22;8462;53.156;8.220;2023-04-24T08:16:08;15.20;82.30
7658;DHT22;8462;53.156;8.220;2023-04-24T08:18:35;15.10;82.50
7658;DHT22;8462;53.156;8.220;2023-04-24T08:21:03;15.20;82.70
7658;DHT22;8462;53.156;8.220;2023-04-24T08:23:30;15.20;82.40
7658;DHT22;8462;53.156;8.220;2023-04-24T08:25:59;15.30;83.00
7658;DHT22;8462;53.156;8.220;2023-04-24T08:28:26;15.30;82.40
7658;DHT22;8462;53.156;8.220;2023-04-24T08:30:53;15.40;81.90
7658;DHT22;8462;53.156;8.220;2023-04-24T08:33:23;15.40;81.80
7658;DHT22;8462;53.156;8.220;2023-04-24T08:35:50;15.50;81.40
7658;DHT22;8462;53.156;8.220;2023-04-24T08:38:18;15.60;80.90
7658;DHT22;8462;53.156;8.220;2023-04-24T08:40:47;15.70;80.80
7658;DHT22;8462;53.156;8.220;2023-04-24T08:43:15;15.80;79.90
7658;DHT22;8462;53.156;8.220;2023-04-24T08:45:43;15.90;79.80
7658;DHT22;8462;53.156;8.220;2023-04-24T08:48:10;15.90;79.50
7658;DHT22;8462;53.156;8.220;2023-04-24T08:50:37;15.90;79.10
7658;DHT22;8462;53.156;8.220;2023-04-24T08:53:08;15.90;78.80
7658;DHT22;8462;53.156;8.220;2023-04-24T08:55:37;15.90;77.40
7658;DHT22;8462;53.156;8.220;2023-04-24T08:58:04;15.80;77.60
7658;DHT22;8462;53.156;8.220;2023-04-24T09:00:31;15.80;77.50
7658;DHT22;8462;53.156;8.220;2023-04-24T09:03:00;15.60;77.50
7658;DHT22;8462;53.156;8.220;2023-04-24T09:05:29;15.50;78.30
7658;DHT22;8462;53.156;8.220;2023-04-24T09:07:56;15.40;78.70
7658;DHT22;8462;53.156;8.220;2023-04-24T09:10:25;15.30;79.50
7658;DHT22;8462;53.156;8.220;2023-04-24T09:12:54;15.30;80.20
7658;DHT22;8462;53.156;8.220;2023-04-24T09:15:22;15.30;79.70
7658;DHT22;8462;53.156;8.220;2023-04-24T09:17:49;15.20;79.70
7658;DHT22;8462;53.156;8.220;2023-04-24T09:20:17;15.20;80.20
7658;DHT22;8462;53.156;8.220;2023-04-24T09:22:45;15.10;80.50
7658;DHT22;8462;53.156;8.220;2023-04-24T09:25:12;15.10;80.70
7658;DHT22;8462;53.156;8.220;2023-04-24T09:27:42;15.00;81.40
7658;DHT22;8462;53.156;8.220;2023-04-24T09:30:12;14.90;81.10
7658;DHT22;8462;53.156;8.220;2023-04-24T09:32:39;14.90;81.50
7658;DHT22;8462;53.156;8.220;2023-04-24T09:35:10;14.80;82.90
7658;DHT22;8462;53.156;8.220;2023-04-24T09:37:40;14.80;83.50
7658;DHT22;8462;53.156;8.220;2023-04-24T09:40:15;14.80;84.70
7658;DHT22;8462;53.156;8.220;2023-04-24T09:42:51;14.70;87.00
7658;DHT22;8462;53.156;8.220;2023-04-24T09:45:20;14.60;87.40
7658;DHT22;8462;53.156;8.220;2023-04-24T09:47:51;14.70;88.90
7658;DHT22;8462;53.156;8.220;2023-04-24T09:50:19;14.80;90.00
7658;DHT22;8462;53.156;8.220;2023-04-24T09:52:47;14.80;88.80
7658;DHT22;8462;53.156;8.220;2023-04-24T09:55:22;14.80;90.00
7658;DHT22;8462;53.156;8.220;2023-04-24T09:57:50;14.80;90.10
7658;DHT22;8462;53.156;8.220;2023-04-24T10:00:27;14.80;90.60
7658;DHT22;8462;53.156;8.220;2023-04-24T10:02:58;14.90;90.60
7658;DHT22;8462;53.156;8.220;2023-04-24T10:05:28;14.90;90.00
7658;DHT22;8462;53.156;8.220;2023-04-24T10:08:02;14.80;90.30
7658;DHT22;8462;53.156;8.220;2023-04-24T10:10:29;14.80;90.40
7658;DHT22;8462;53.156;8.220;2023-04-24T10:12:57;14.80;90.00
7658;DHT22;8462;53.156;8.220;2023-04-24T10:15:27;14.80;91.00
7658;DHT22;8462;53.156;8.220;2023-04-24T10:17:55;14.90;90.50
7658;DHT22;8462;53.156;8.220;2023-04-24T10:20:26;14.90;90.40
7658;DHT22;8462;53.156;8.220;2023-04-24T10:22:55;14.90;90.20
7658;DHT22;8462;53.156;8.220;2023-04-24T10:25:23;15.00;89.70
7658;DHT22;8462;53.156;8.220;2023-04-24T10:27:52;15.10;89.70
7658;DHT22;8462;53.156;8.220;2023-04-24T10:30:23;15.10;90.20
7658;DHT22;8462;53.156;8.220;2023-04-24T10:32:51;15.20;89.40
7658;DHT22;8462;53.156;8.220;2023-04-24T10:35:19;15.30;88.80
7658;DHT22;8462;53.156;8.220;2023-04-24T10:37:51;15.40;89.00
7658;DHT22;8462;53.156;8.220;2023-04-24T10:40:26;15.40;89.90
7658;DHT22;8462;53.156;8.220;2023-04-24T10:42:53;15.50;90.10
7658;DHT22;8462;53.156;8.220;2023-04-24T10:45:22;15.60;90.10
7658;DHT22;8462;53.156;8.220;2023-04-24T10:47:56;15.60;89.50
7658;DHT22;8462;53.156;8.220;2023-04-24T10:50:25;15.60;90.00
7658;DHT22;8462;53.156;8.220;2023-04-24T10:52:52;15.50;89.80
7658;DHT22;8462;53.156;8.220;2023-04-24T10:55:49;15.40;90.00
7658;DHT22;8462;53.156;8.220;2023-04-24T10:58:16;15.30;89.90
7658;DHT22;8462;53.156;8.220;2023-04-24T11:00:44;15.10;90.10
7658;DHT22;8462;53.156;8.220;2023-04-24T11:03:28;14.90;90.10
7658;DHT22;8462;53.156;8.220;2023-04-24T11:05:57;14.80;91.10
7658;DHT22;8462;53.156;8.220;2023-04-24T11:08:31;14.60;91.30
7658;DHT22;8462;53.156;8.220;2023-04-24T11:11:00;14.50;92.50
7658;DHT22;8462;53.156;8.220;2023-04-24T11:14:02;14.40;92.80
7658;DHT22;8462;53.156;8.220;2023-04-24T11:16:31;14.30;93.50
7658;DHT22;8462;53.156;8.220;2023-04-24T11:19:04;14.30;93.40
7658;DHT22;8462;53.156;8.220;2023-04-24T11:21:32;14.20;93.30
7658;DHT22;8462;53.156;8.220;2023-04-24T11:24:23;14.20;93.40
7658;DHT22;8462;53.156;8.220;2023-04-24T11:26:51;14.10;93.90
7658;DHT22;8462;53.156;8.220;2023-04-24T11:29:21;13.90;94.30
7658;DHT22;8462;53.156;8.220;2023-04-24T11:31:48;13.80;95.30
7658;DHT22;8462;53.156;8.220;2023-04-24T11:34:17;13.80;94.80
7658;DHT22;8462;53.156;8.220;2023-04-24T11:36:45;13.70;94.90
7658;DHT22;8462;53.156;8.220;2023-04-24T11:39:13;13.60;95.50
7658;DHT22;8462;53.156;8.220;2023-04-24T11:41:41;13.60;95.20
7658;DHT22;8462;53.156;8.220;2023-04-24T11:44:09;13.40;95.30
7658;DHT22;8462;53.156;8.220;2023-04-24T11:46:38;13.30;95.60
7658;DHT22;8462;53.156;8.220;2023-04-24T11:49:05;13.40;98.00
7658;DHT22;8462;53.156;8.220;2023-04-24T11:51:32;13.40;97.20
7658;DHT22;8462;53.156;8.220;2023-04-24T11:54:01;13.50;96.70
7658;DHT22;8462;53.156;8.220;2023-04-24T11:56:29;13.50;96.80
7658;DHT22;8462;53.156;8.220;2023-04-24T11:58:56;13.40;97.20
7658;DHT22;8462;53.156;8.220;2023-04-24T12:01:23;13.40;97.70
7658;DHT22;8462;53.156;8.220;2023-04-24T12:03:59;13.20;96.60
7658;DHT22;8462;53.156;8.220;2023-04-24T12:06:26;13.00;97.10
7658;DHT22;8462;53.156;8.220;2023-04-24T12:08:53;12.80;98.10
7658;DHT22;8462;53.156;8.220;2023-04-24T12:11:23;12.60;98.60
7658;DHT22;8462;53.156;8.220;2023-04-24T12:13:51;12.50;98.90
7658;DHT22;8462;53.156;8.220;2023-04-24T12:16:19;12.40;99.40
7658;DHT22;8462;53.156;8.220;2023-04-24T12:18:46;12.20;99.50
7658;DHT22;8462;53.156;8.220;2023-04-24T12:21:19;12.10;99.20
7658;DHT22;8462;53.156;8.220;2023-04-24T12:23:47;12.00;99.70
7658;DHT22;8462;53.156;8.220;2023-04-24T12:26:18;11.90;98.10
7658;DHT22;8462;53.156;8.220;2023-04-24T12:28:47;11.80;98.90
7658;DHT22;8462;53.156;8.220;2023-04-24T12:31:15;11.70;99.30
7658;DHT22;8462;53.156;8.220;2023-04-24T12:33:43;11.50;98.80
7658;DHT22;8462;53.156;8.220;2023-04-24T12:36:11;11.40;99.70
7658;DHT22;8462;53.156;8.220;2023-04-24T12:38:43;11.40;99.90
7658;DHT22;8462;53.156;8.220;2023-04-24T12:41:13;11.30;99.90
7658;DHT22;8462;53.156;8.220;2023-04-24T12:43:51;11.20;99.90
7658;DHT22;8462;53.156;8.220;2023-04-24T12:46:20;11.20;99.90
7658;DHT22;8462;53.156;8.220;2023-04-24T12:48:46;11.20;99.90
7658;DHT22;8462;53.156;8.220;2023-04-24T12:51:13;11.20;99.90
7658;DHT22;8462;53.156;8.220;2023-04-24T12:53:42;11.20;99.90
7658;DHT22;8462;53.156;8.220;2023-04-24T12:56:09;11.10;99.90
7658;DHT22;8462;53.156;8.220;2023-04-24T12:58:37;11.10;99.90
7658;DHT22;8462;53.156;8.220;2023-04-24T13:01:04;11.10;99.90
7658;DHT22;8462;53.156;8.220;2023-04-24T13:03:32;11.10;99.90
7658;DHT22;8462;53.156;8.220;2023-04-24T13:05:59;11.00;99.90
7658;DHT22;8462;53.156;8.220;2023-04-24T13:08:26;11.10;99.90
7658;DHT22;8462;53.156;8.220;2023-04-24T13:10:55;11.10;99.90
7658;DHT22;8462;53.156;8.220;2023-04-24T13:13:22;11.10;99.90
7658;DHT22;8462;53.156;8.220;2023-04-24T13:15:49;11.20;99.90
7658;DHT22;8462;53.156;8.220;2023-04-24T13:18:17;11.20;99.90
7658;DHT22;8462;53.156;8.220;2023-04-24T13:20:45;11.20;99.90
7658;DHT22;8462;53.156;8.220;2023-04-24T13:23:14;11.30;99.90
7658;DHT22;8462;53.156;8.220;2023-04-24T13:25:41;11.30;99.90
7658;DHT22;8462;53.156;8.220;2023-04-24T13:28:10;11.20;99.90
7658;DHT22;8462;53.156;8.220;2023-04-24T13:30:37;11.30;99.90
7658;DHT22;8462;53.156;8.220;2023-04-24T13:33:04;11.20;99.90
7658;DHT22;8462;53.156;8.220;2023-04-24T13:35:31;11.20;99.90
7658;DHT22;8462;53.156;8.220;2023-04-24T13:37:58;11.20;99.90
7658;DHT22;8462;53.156;8.220;2023-04-24T13:40:27;11.20;99.90
7658;DHT22;8462;53.156;8.220;2023-04-24T13:42:55;11.10;99.90
7658;DHT22;8462;53.156;8.220;2023-04-24T13:45:23;11.10;99.90
7658;DHT22;8462;53.156;8.220;2023-04-24T13:47:50;11.20;99.90
7658;DHT22;8462;53.156;8.220;2023-04-24T13:50:19;11.30;99.90
7658;DHT22;8462;53.156;8.220;2023-04-24T13:52:46;11.30;99.90
7658;DHT22;8462;53.156;8.220;2023-04-24T13:55:13;11.40;99.90
7658;DHT22;8462;53.156;8.220;2023-04-24T13:57:42;11.40;99.90
7658;DHT22;8462;53.156;8.220;2023-04-24T14:00:10;11.50;99.90
7658;DHT22;8462;53.156;8.220;2023-04-24T14:02:38;11.50;99.90
7658;DHT22;8462;53.156;8.220;2023-04-24T14:05:07;11.60;99.90
7658;DHT22;8462;53.156;8.220;2023-04-24T14:07:35;11.70;99.90
7658;DHT22;8462;53.156;8.220;2023-04-24T14:10:03;11.70;99.90
7658;DHT22;8462;53.156;8.220;2023-04-24T14:12:32;11.80;99.90
7658;DHT22;8462;53.156;8.220;2023-04-24T14:14:59;11.90;99.90
7658;DHT22;8462;53.156;8.220;2023-04-24T14:17:27;11.90;99.90
7658;DHT22;8462;53.156;8.220;2023-04-24T14:19:56;11.90;99.90
7658;DHT22;8462;53.156;8.220;2023-04-24T14:22:25;11.90;99.90
7658;DHT22;8462;53.156;8.220;2023-04-24T14:24:53;12.00;99.90
7658;DHT22;8462;53.156;8.220;2023-04-24T14:27:20;12.10;99.90
7658;DHT22;8462;53.156;8.220;2023-04-24T14:29:48;12.00;99.90
7658;DHT22;8462;53.156;8.220;2023-04-24T14:32:16;12.00;99.90
7658;DHT22;8462;53.156;8.220;2023-04-24T14:34:43;12.10;99.90
7658;DHT22;8462;53.156;8.220;2023-04-24T14:37:12;12.10;99.90
7658;DHT22;8462;53.156;8.220;2023-04-24T14:39:39;12.00;98.40
7658;DHT22;8462;53.156;8.220;2023-04-24T14:42:05;11.90;97.50
7658;DHT22;8462;53.156;8.220;2023-04-24T14:44:32;11.80;98.10
7658;DHT22;8462;53.156;8.220;2023-04-24T14:46:59;11.80;98.30
7658;DHT22;8462;53.156;8.220;2023-04-24T14:49:26;11.80;98.30
7658;DHT22;8462;53.156;8.220;2023-04-24T14:51:54;11.80;97.70
7658;DHT22;8462;53.156;8.220;2023-04-24T14:54:23;11.80;96.80
7658;DHT22;8462;53.156;8.220;2023-04-24T14:56:50;11.80;97.60
7658;DHT22;8462;53.156;8.220;2023-04-24T14:59:17;12.00;98.40
7658;DHT22;8462;53.156;8.220;2023-04-24T15:01:45;12.10;97.70
7658;DHT22;8462;53.156;8.220;2023-04-24T15:04:12;12.20;97.10
7658;DHT22;8462;53.156;8.220;2023-04-24T15:06:40;12.30;96.70
7658;DHT22;8462;53.156;8.220;2023-04-24T15:09:07;12.40;96.30
7658;DHT22;8462;53.156;8.220;2023-04-24T15:11:36;12.40;96.60
7658;DHT22;8462;53.156;8.220;2023-04-24T15:14:04;12.40;95.90
7658;DHT22;8462;53.156;8.220;2023-04-24T15:16:31;12.40;95.70
7658;DHT22;8462;53.156;8.220;2023-04-24T15:18:58;12.30;95.80
7658;DHT22;8462;53.156;8.220;2023-04-24T15:21:26;12.20;95.90
7658;DHT22;8462;53.156;8.220;2023-04-24T15:23:53;12.10;96.30
7658;DHT22;8462;53.156;8.220;2023-04-24T15:26:21;12.10;96.80
7658;DHT22;8462;53.156;8.220;2023-04-24T15:28:50;12.10;97.20
7658;DHT22;8462;53.156;8.220;2023-04-24T15:31:17;12.10;97.00
7658;DHT22;8462;53.156;8.220;2023-04-24T15:33:46;12.20;97.20
7658;DHT22;8462;53.156;8.220;2023-04-24T15:36:12;12.10;95.50
7658;DHT22;8462;53.156;8.220;2023-04-24T15:38:39;12.10;95.90
7658;DHT22;8462;53.156;8.220;2023-04-24T15:41:06;12.00;94.90
7658;DHT22;8462;53.156;8.220;2023-04-24T15:43:35;12.10;95.30
7658;DHT22;8462;53.156;8.220;2023-04-24T15:46:05;12.10;95.20
7658;DHT22;8462;53.156;8.220;2023-04-24T15:48:32;12.10;95.30
7658;DHT22;8462;53.156;8.220;2023-04-24T15:51:00;12.10;94.90
7658;DHT22;8462;53.156;8.220;2023-04-24T15:53:33;12.10;94.10
7658;DHT22;8462;53.156;8.220;2023-04-24T15:56:00;12.10;94.00
7658;DHT22;8462;53.156;8.220;2023-04-24T15:58:28;12.10;94.80
7658;DHT22;8462;53.156;8.220;2023-04-24T16:00:54;12.10;95.10
7658;DHT22;8462;53.156;8.220;2023-04-24T16:03:23;12.20;94.40
7658;DHT22;8462;53.156;8.220;2023-04-24T16:05:51;12.20;94.70
7658;DHT22;8462;53.156;8.220;2023-04-24T16:08:18;12.20;94.40
7658;DHT22;8462;53.156;8.220;2023-04-24T16:10:47;12.20;94.90